Terminal Aerodrome Forecast
Issued by NWS Charleston, SC

Home | Current Version | Previous Version | Text Only | Print | Product List | Glossary On
Versions: 1 2 3 4 5 6 7 8 9 10 11 12 13 14 15 16 17 18 19 20 21 22 23 24 25 26 27 28
000
FTUS42 KCHS 061518 AAC
TAFCHS
TAF AMD
KCHS 061518Z 0615/0712 26006KT P6SM SCT015
      TEMPO 0615/0617 BKN015
     FM061900 19010KT P6SM VCTS SCT035CB BKN060
     FM062200 19008KT P6SM SCT060 BKN150
     FM070400 25003KT P6SM SCT030 BKN100=

USA.gov is the U.S. government's official web portal to all federal, state and local government web resources and services.